Time;durP1;ratioP1;P1;durP2;ratioP2;P2;SDS_P1;SDS_P2;PMS_P1;PMS_P2;Temp;Humidity;BMP_temperature;BMP_pressure;BME280_temperature;BME280_humidity;BME280_pressure;Samples;Min_cycle;Max_cycle;Signal;HPM_P1;HPM_P2
2023/07/20 00:02:08;;;;;;;4.93;2.30;;;;;;;22.44;63.43;100711.94;4912748;28;96839;-73
2023/07/20 00:04:35;;;;;;;4.97;2.40;;;;;;;22.40;63.77;100713.16;4910740;28;97369;-72
2023/07/20 00:07:01;;;;;;;5.85;2.63;;;;;;;22.30;63.43;100706.88;4907694;28;99955;-72
2023/07/20 00:09:28;;;;;;;5.00;2.60;;;;;;;22.18;64.58;100704.25;4911206;28;96865;-72
2023/07/20 00:11:56;;;;;;;5.00;2.60;;;;;;;22.31;64.75;100716.66;4909501;28;98538;-72
2023/07/20 00:14:22;;;;;;;4.28;3.03;;;;;;;22.25;65.08;100709.94;4906039;28;99412;-72
2023/07/20 00:16:55;;;;;;;9.50;2.70;;;;;;;22.37;65.30;100713.44;4907553;28;101902;-73
2023/07/20 00:19:21;;;;;;;2.92;2.50;;;;;;;22.18;65.68;100712.31;4916241;28;99201;-73
2023/07/20 00:21:48;;;;;;;7.88;2.53;;;;;;;22.23;65.57;100719.97;4910564;28;99044;-71
2023/07/20 00:24:15;;;;;;;9.50;3.55;;;;;;;22.27;65.04;100716.03;4911776;28;99068;-73
2023/07/20 00:26:41;;;;;;;4.38;3.75;;;;;;;22.27;64.76;100718.72;4911582;28;97086;-73
2023/07/20 00:29:09;;;;;;;7.57;4.20;;;;;;;22.10;65.37;100708.53;4909309;28;97536;-72
2023/07/20 00:31:36;;;;;;;4.80;4.30;;;;;;;22.12;65.45;100712.78;4906523;28;96919;-73
2023/07/20 00:34:03;;;;;;;5.97;4.32;;;;;;;21.96;65.64;100708.84;4913214;28;99069;-72
2023/07/20 00:36:30;;;;;;;7.70;3.95;;;;;;;21.84;66.27;100714.25;4913860;28;99083;-71
2023/07/20 00:38:56;;;;;;;9.00;3.80;;;;;;;21.80;66.08;100715.44;4905593;28;96947;-72
2023/07/20 00:41:23;;;;;;;5.68;3.60;;;;;;;21.81;66.32;100724.38;4906412;28;96912;-72
2023/07/20 00:43:49;;;;;;;5.93;3.97;;;;;;;21.73;66.61;100722.31;4909250;28;99393;-71
2023/07/20 00:46:17;;;;;;;5.22;3.38;;;;;;;21.54;67.25;100718.56;4909598;28;99026;-73
2023/07/20 00:48:43;;;;;;;6.22;3.70;;;;;;;21.68;66.71;100729.91;4914898;28;97192;-73
2023/07/20 00:51:11;;;;;;;6.05;3.40;;;;;;;21.65;66.84;100721.25;4909420;28;96907;-72
2023/07/20 00:53:38;;;;;;;8.95;4.55;;;;;;;21.52;67.56;100720.56;4908646;28;98907;-71
2023/07/20 00:56:04;;;;;;;3.55;3.25;;;;;;;21.72;66.76;100715.25;4910860;28;99143;-72
2023/07/20 00:58:31;;;;;;;7.00;3.28;;;;;;;21.84;66.52;100716.94;4910491;28;97079;-74
2023/07/20 01:00:57;;;;;;;6.13;3.30;;;;;;;21.68;66.69;100716.47;4916224;28;96797;-72
2023/07/20 01:03:25;;;;;;;4.03;3.35;;;;;;;21.96;66.11;100720.47;4912720;28;98173;-73
2023/07/20 01:05:58;;;;;;;6.90;3.60;;;;;;;21.79;66.06;100716.44;4909695;28;99204;-73
2023/07/20 01:08:32;;;;;;;4.47;3.70;;;;;;;21.62;67.38;100722.34;4911890;28;96841;-74
2023/07/20 01:11:07;;;;;;;6.53;3.72;;;;;;;21.46;67.63;100721.91;4907041;28;99577;-73
2023/07/20 01:13:34;;;;;;;6.00;3.28;;;;;;;21.54;67.54;100721.25;4911806;28;99415;-75
2023/07/20 01:16:02;;;;;;;4.78;3.20;;;;;;;21.53;66.93;100724.97;4909487;28;99205;-73
2023/07/20 01:18:30;;;;;;;3.88;3.58;;;;;;;21.48;66.93;100722.63;4909195;28;96874;-72
2023/07/20 01:21:02;;;;;;;7.10;3.40;;;;;;;21.41;67.33;100730.31;4905866;28;98739;-71
2023/07/20 01:23:47;;;;;;;5.07;3.28;;;;;;;21.47;67.34;100720.91;4908489;28;99337;-73
2023/07/20 01:26:38;;;;;;;4.38;3.88;;;;;;;21.22;68.16;100727.41;4904298;28;98135;-73
2023/07/20 01:29:36;;;;;;;6.25;3.97;;;;;;;21.55;67.26;100723.84;4913098;28;96876;-74
2023/07/20 01:32:07;;;;;;;9.23;3.75;;;;;;;21.56;66.57;100716.63;4909967;28;97911;-73
2023/07/20 01:34:36;;;;;;;6.97;4.00;;;;;;;21.45;66.85;100722.88;4907508;28;97634;-73
2023/07/20 01:37:04;;;;;;;7.32;3.60;;;;;;;21.44;66.96;100723.84;4905867;28;98844;-72
2023/07/20 01:39:32;;;;;;;5.32;3.40;;;;;;;21.33;67.84;100715.81;4912086;28;96682;-73
2023/07/20 01:41:59;;;;;;;5.93;4.00;;;;;;;21.43;67.04;100720.31;4910869;28;97296;-75
2023/07/20 01:44:26;;;;;;;5.53;4.22;;;;;;;21.48;66.73;100715.41;4910533;28;100379;-73
2023/07/20 01:46:52;;;;;;;7.38;3.95;;;;;;;21.48;66.81;100717.25;4905486;28;102027;-72
2023/07/20 01:49:20;;;;;;;5.15;4.32;;;;;;;21.43;67.44;100720.31;4911008;28;97790;-72
2023/07/20 01:51:46;;;;;;;7.03;3.97;;;;;;;21.38;67.33;100719.84;4911051;28;100782;-72
2023/07/20 01:54:12;;;;;;;6.97;4.30;;;;;;;21.34;67.63;100720.19;4912699;28;98911;-72
2023/07/20 01:56:39;;;;;;;5.28;3.92;;;;;;;21.40;67.00;100714.31;4909844;28;99010;-75
2023/07/20 01:59:05;;;;;;;6.40;3.78;;;;;;;21.39;66.86;100709.94;4909196;28;96924;-73
2023/07/20 02:01:32;;;;;;;3.85;3.55;;;;;;;21.43;66.50;100716.75;4913708;28;97671;-73
2023/07/20 02:03:58;;;;;;;7.00;4.20;;;;;;;21.15;67.66;100719.91;4908605;28;99026;-73
2023/07/20 02:06:26;;;;;;;5.25;3.58;;;;;;;21.35;66.97;100721.91;4911045;28;99537;-73
2023/07/20 02:08:52;;;;;;;5.22;3.80;;;;;;;21.35;66.80;100719.22;4905879;28;97274;-74
2023/07/20 02:11:19;;;;;;;5.30;3.72;;;;;;;21.16;67.33;100737.78;4910812;28;97792;-73
2023/07/20 02:13:45;;;;;;;5.50;3.88;;;;;;;21.36;66.56;100723.63;4907028;28;99079;-72
2023/07/20 02:16:12;;;;;;;4.18;3.63;;;;;;;21.20;66.51;100728.53;4911667;28;98933;-72
2023/07/20 02:18:38;;;;;;;5.97;3.80;;;;;;;21.36;66.54;100715.56;4906863;28;101833;-72
2023/07/20 02:21:05;;;;;;;5.72;4.07;;;;;;;21.29;66.50;100730.47;4903638;28;96840;-71
2023/07/20 02:23:33;;;;;;;6.93;4.28;;;;;;;21.33;66.74;100724.72;4910137;28;99709;-72
2023/07/20 02:25:59;;;;;;;4.43;3.97;;;;;;;21.61;65.85;100723.31;4911474;28;98781;-74
2023/07/20 02:28:25;;;;;;;5.97;4.10;;;;;;;21.82;64.75;100720.72;4910835;28;97066;-74
2023/07/20 02:30:52;;;;;;;10.00;4.80;;;;;;;21.86;64.17;100728.38;4907987;28;97007;-75
2023/07/20 02:33:18;;;;;;;4.97;4.10;;;;;;;21.78;64.35;100725.50;4910513;28;97622;-74
2023/07/20 02:35:44;;;;;;;7.43;5.25;;;;;;;21.74;64.03;100723.16;4907735;28;98916;-74
2023/07/20 02:38:11;;;;;;;7.72;4.78;;;;;;;22.02;63.38;100713.72;4906035;28;96837;-74
2023/07/20 02:40:39;;;;;;;6.20;5.10;;;;;;;21.81;63.33;100714.47;4908519;28;98251;-74
2023/07/20 02:43:05;;;;;;;4.50;4.07;;;;;;;21.79;63.65;100721.81;4910547;28;101693;-74
2023/07/20 02:45:31;;;;;;;9.52;4.95;;;;;;;21.70;63.86;100717.22;4906725;28;98853;-74
2023/07/20 02:47:58;;;;;;;7.25;5.15;;;;;;;21.89;63.56;100724.59;4911442;28;96959;-73
2023/07/20 02:50:24;;;;;;;5.40;4.38;;;;;;;22.01;62.86;100730.81;4906661;28;97498;-73
2023/07/20 02:52:51;;;;;;;6.47;5.13;;;;;;;21.74;63.46;100731.25;4907830;28;100588;-73
2023/07/20 02:55:17;;;;;;;7.05;5.53;;;;;;;21.81;62.78;100744.06;4910337;28;99033;-75
2023/07/20 02:57:45;;;;;;;8.15;5.97;;;;;;;21.80;62.95;100747.72;4906842;28;97154;-73
2023/07/20 03:00:16;;;;;;;8.32;6.47;;;;;;;21.74;62.75;100740.16;4909299;28;96925;-72
2023/07/20 03:02:42;;;;;;;10.52;6.43;;;;;;;21.71;62.97;100744.97;4905781;28;99017;-73
2023/07/20 03:05:10;;;;;;;7.68;6.70;;;;;;;21.58;63.41;100749.63;4906503;28;98971;-73
2023/07/20 03:07:36;;;;;;;10.90;6.85;;;;;;;21.50;63.44;100747.56;4904169;28;98643;-73
2023/07/20 03:10:03;;;;;;;7.22;6.50;;;;;;;21.24;64.93;100757.72;4905229;28;97607;-73
2023/07/20 03:12:29;;;;;;;7.07;6.35;;;;;;;21.37;65.01;100749.53;4908997;28;99068;-72
2023/07/20 03:14:57;;;;;;;12.55;7.25;;;;;;;21.40;64.58;100751.94;4907485;28;98055;-73
2023/07/20 03:17:24;;;;;;;7.93;6.40;;;;;;;21.58;63.98;100747.78;4911189;28;96811;-73
2023/07/20 03:19:50;;;;;;;7.88;6.28;;;;;;;21.68;63.66;100753.25;4908810;28;99214;-73
2023/07/20 03:22:17;;;;;;;10.77;7.10;;;;;;;21.45;64.29;100752.44;4908689;28;98354;-74
2023/07/20 03:24:44;;;;;;;8.02;6.82;;;;;;;21.49;64.58;100745.84;4911786;28;98971;-73
2023/07/20 03:27:10;;;;;;;9.15;6.85;;;;;;;21.35;64.83;100748.78;4910215;28;97533;-74
2023/07/20 03:29:36;;;;;;;8.88;7.55;;;;;;;21.35;65.16;100746.09;4910254;28;97581;-72
2023/07/20 03:32:05;;;;;;;9.15;7.40;;;;;;;21.45;64.90;100749.75;4910681;28;97901;-77
2023/07/20 03:34:31;;;;;;;16.45;7.70;;;;;;;21.51;64.88;100754.66;4910787;28;99325;-74
2023/07/20 03:36:59;;;;;;;10.32;7.60;;;;;;;21.77;63.73;100758.75;4907256;28;97135;-73
2023/07/20 03:39:25;;;;;;;12.77;8.27;;;;;;;21.79;63.59;100770.22;4913053;28;97141;-74
2023/07/20 03:41:52;;;;;;;10.45;7.22;;;;;;;21.61;64.13;100763.66;4913682;28;100619;-74
2023/07/20 03:44:18;;;;;;;8.00;6.93;;;;;;;21.76;63.28;100762.41;4908232;28;98840;-74
2023/07/20 03:46:45;;;;;;;10.63;6.57;;;;;;;22.00;62.33;100769.47;4914881;28;97152;-74
2023/07/20 03:49:12;;;;;;;8.60;6.40;;;;;;;21.89;62.10;100764.97;4908656;28;96858;-74
2023/07/20 03:51:39;;;;;;;10.23;5.82;;;;;;;21.99;61.76;100763.22;4910312;28;98987;-73
2023/07/20 03:54:05;;;;;;;9.02;7.05;;;;;;;22.22;60.41;100767.56;4907709;28;101443;-73
2023/07/20 03:56:35;;;;;;;6.30;5.45;;;;;;;22.15;60.74;100766.38;4905674;28;96786;-74
2023/07/20 03:59:01;;;;;;;7.32;5.85;;;;;;;22.34;60.18;100767.53;4909589;28;96828;-72
2023/07/20 04:01:28;;;;;;;7.80;5.78;;;;;;;22.42;59.98;100768.59;4911227;28;99008;-72
2023/07/20 04:03:54;;;;;;;7.45;6.72;;;;;;;22.09;60.74;100769.59;4906448;28;98841;-73
2023/07/20 04:06:22;;;;;;;6.53;5.38;;;;;;;21.96;60.98;100776.97;4911530;28;96809;-73
2023/07/20 04:08:48;;;;;;;6.95;5.45;;;;;;;21.86;61.61;100776.81;4909902;28;96882;-73
2023/07/20 04:11:15;;;;;;;6.38;5.70;;;;;;;21.72;62.07;100773.56;4907133;28;99163;-72
2023/07/20 04:13:42;;;;;;;9.30;5.68;;;;;;;21.84;61.91;100778.78;4908543;28;102285;-72
2023/07/20 04:16:08;;;;;;;6.38;5.30;;;;;;;21.85;61.91;100772.44;4901953;28;96915;-72
2023/07/20 04:18:34;;;;;;;6.65;5.97;;;;;;;21.72;62.31;100781.63;4908546;28;98578;-72
2023/07/20 04:21:01;;;;;;;6.80;6.20;;;;;;;21.77;62.03;100779.41;4908882;28;99469;-73
2023/07/20 04:23:28;;;;;;;7.80;6.15;;;;;;;21.79;62.16;100782.84;4905833;28;97643;-72
2023/07/20 04:25:55;;;;;;;9.48;6.05;;;;;;;21.75;62.51;100779.53;4905277;28;97585;-73
2023/07/20 04:28:21;;;;;;;9.25;6.28;;;;;;;21.76;62.43;100781.25;4905642;28;98481;-73
2023/07/20 04:30:51;;;;;;;6.35;5.72;;;;;;;21.77;62.46;100780.28;4906112;28;99513;-73
2023/07/20 04:33:18;;;;;;;9.20;6.43;;;;;;;21.55;63.02;100787.50;4910618;28;98882;-73
2023/07/20 04:35:49;;;;;;;7.35;6.47;;;;;;;21.79;62.32;100780.97;4909549;28;97777;-73
2023/07/20 04:38:17;;;;;;;7.53;6.35;;;;;;;22.24;60.78;100776.38;4911880;28;98004;-72
2023/07/20 04:40:45;;;;;;;8.02;5.78;;;;;;;22.27;60.12;100784.19;4908825;28;101261;-74
2023/07/20 04:43:11;;;;;;;8.55;5.70;;;;;;;21.88;61.52;100791.00;4909387;28;99736;-76
2023/07/20 04:45:38;;;;;;;11.60;6.40;;;;;;;22.00;61.00;100797.22;4908937;28;96789;-74
2023/07/20 04:48:09;;;;;;;8.40;5.88;;;;;;;21.77;61.68;100788.34;4908605;28;96920;-73
2023/07/20 04:50:35;;;;;;;7.57;6.32;;;;;;;21.90;61.16;100790.88;4912616;28;99147;-72
2023/07/20 04:53:03;;;;;;;6.57;5.88;;;;;;;21.93;61.27;100785.22;4909643;28;100156;-73
2023/07/20 04:55:29;;;;;;;8.60;6.35;;;;;;;22.05;60.81;100791.50;4908373;28;96910;-73
2023/07/20 04:57:57;;;;;;;7.28;6.28;;;;;;;21.89;61.18;100786.47;4907647;28;99485;-73
2023/07/20 05:00:24;;;;;;;8.18;6.07;;;;;;;21.77;60.95;100798.25;4910625;28;99419;-73
2023/07/20 05:02:50;;;;;;;7.22;5.28;;;;;;;21.79;61.24;100791.75;4909800;28;98125;-73
2023/07/20 05:05:17;;;;;;;5.90;5.40;;;;;;;21.84;60.97;100796.75;4909383;28;96906;-72
2023/07/20 05:07:43;;;;;;;7.53;5.10;;;;;;;22.19;59.91;100799.25;4910241;28;96813;-73
2023/07/20 05:10:10;;;;;;;5.28;4.57;;;;;;;22.50;58.97;100800.25;4912846;28;99921;-73
2023/07/20 05:12:37;;;;;;;6.38;5.00;;;;;;;22.71;57.54;100794.91;4906357;28;99214;-73
2023/07/20 05:15:05;;;;;;;6.63;5.43;;;;;;;22.94;57.25;100805.44;4910532;28;96977;-72
2023/07/20 05:17:32;;;;;;;9.38;4.90;;;;;;;22.74;57.21;100805.44;4910402;28;96806;-73
2023/07/20 05:19:58;;;;;;;5.38;4.88;;;;;;;22.72;57.38;100804.66;4908377;28;101310;-72
2023/07/20 05:22:25;;;;;;;8.82;4.82;;;;;;;22.91;56.81;100796.75;4910389;28;99171;-64
2023/07/20 05:24:51;;;;;;;9.50;5.50;;;;;;;22.94;56.11;100796.50;4907886;28;96750;-65
2023/07/20 05:27:18;;;;;;;7.47;5.32;;;;;;;22.59;57.22;100800.31;4908115;28;101001;-64
2023/07/20 05:29:45;;;;;;;8.07;5.45;;;;;;;22.20;58.61;100800.97;4908515;28;98277;-64
2023/07/20 05:32:13;;;;;;;12.80;6.68;;;;;;;22.24;59.15;100805.13;4906752;28;98957;-64
2023/07/20 05:34:40;;;;;;;7.47;5.35;;;;;;;22.21;59.44;100808.94;4908722;28;97008;-64
2023/07/20 05:37:07;;;;;;;5.57;5.07;;;;;;;22.18;59.60;100809.19;4904192;28;97907;-63
2023/07/20 05:39:33;;;;;;;7.20;5.38;;;;;;;22.40;59.03;100808.25;4909456;28;100321;-64
2023/07/20 05:42:00;;;;;;;8.48;5.90;;;;;;;22.39;59.03;100806.53;4909754;28;98925;-64
2023/07/20 05:44:26;;;;;;;8.73;5.40;;;;;;;22.51;57.98;100816.25;4903347;28;96851;-64
2023/07/20 05:46:53;;;;;;;73.00;9.23;;;;;;;22.60;57.56;100814.63;4906539;28;97108;-65
2023/07/20 05:49:20;;;;;;;7.95;5.75;;;;;;;22.76;57.65;100815.09;4905445;28;101553;-64
2023/07/20 05:51:47;;;;;;;13.93;5.28;;;;;;;22.91;56.99;100812.91;4905366;28;98124;-64
2023/07/20 05:54:20;;;;;;;12.70;5.57;;;;;;;23.06;56.67;100814.28;4903801;28;96854;-64
2023/07/20 05:56:46;;;;;;;7.25;5.45;;;;;;;23.14;55.96;100814.47;4906092;28;97090;-64
2023/07/20 05:59:15;;;;;;;8.98;5.60;;;;;;;23.11;55.88;100812.03;4910837;28;99260;-65
2023/07/20 06:01:42;;;;;;;6.32;4.97;;;;;;;23.18;55.26;100826.69;4908864;28;98727;-65
2023/07/20 06:04:08;;;;;;;6.63;5.00;;;;;;;22.86;56.70;100823.22;4904212;28;97726;-65
2023/07/20 06:06:36;;;;;;;5.90;4.78;;;;;;;22.70;57.37;100817.41;4907546;28;97651;-65
2023/07/20 06:09:04;;;;;;;10.55;5.43;;;;;;;22.84;56.45;100833.31;4907166;28;100024;-65
2023/07/20 06:11:31;;;;;;;7.07;5.50;;;;;;;22.67;57.34;100826.59;4909147;28;99282;-73
2023/07/20 06:13:57;;;;;;;5.32;4.38;;;;;;;22.85;56.59;100829.59;4903766;28;97631;-74
2023/07/20 06:16:23;;;;;;;10.18;4.95;;;;;;;22.88;55.88;100832.03;4905383;28;97363;-73
2023/07/20 06:18:50;;;;;;;9.55;5.00;;;;;;;22.99;55.52;100832.81;4901734;28;97992;-71
2023/07/20 06:21:16;;;;;;;8.48;5.03;;;;;;;23.24;55.08;100834.25;4907951;28;98552;-72
2023/07/20 06:23:44;;;;;;;11.20;5.68;;;;;;;23.25;54.65;100833.25;4903132;28;97048;-72
2023/07/20 06:26:10;;;;;;;5.05;4.47;;;;;;;23.11;54.84;100839.00;4904265;28;96862;-74
2023/07/20 06:28:37;;;;;;;9.05;5.03;;;;;;;23.16;53.82;100835.91;4906935;28;98216;-72
2023/07/20 06:31:04;;;;;;;9.75;4.22;;;;;;;22.90;53.86;100838.16;4906267;28;99010;-72
2023/07/20 06:33:31;;;;;;;5.38;3.85;;;;;;;22.76;54.68;100836.66;4905375;28;97213;-73
2023/07/20 06:35:58;;;;;;;6.22;3.72;;;;;;;22.75;55.03;100836.78;4904036;28;97089;-73
2023/07/20 06:38:25;;;;;;;8.25;4.07;;;;;;;23.04;53.95;100835.97;4902384;28;99027;-72
2023/07/20 06:40:53;;;;;;;10.68;4.60;;;;;;;22.72;55.31;100840.53;4901421;28;99239;-73
2023/07/20 06:43:19;;;;;;;6.47;3.53;;;;;;;23.12;54.16;100845.25;4904387;28;96992;-73
2023/07/20 06:45:52;;;;;;;5.32;3.40;;;;;;;23.11;53.47;100838.13;4903562;28;98236;-73
2023/07/20 06:48:18;;;;;;;5.70;3.30;;;;;;;22.80;53.75;100834.53;4906639;28;98710;-73
2023/07/20 06:50:45;;;;;;;5.68;3.35;;;;;;;22.95;53.45;100836.78;4907953;28;101495;-73
2023/07/20 06:53:11;;;;;;;7.18;2.35;;;;;;;22.78;52.71;100849.97;4903207;28;97762;-74
2023/07/20 06:55:38;;;;;;;3.15;2.08;;;;;;;22.78;51.77;100855.34;4906898;28;97800;-74
2023/07/20 06:58:06;;;;;;;4.90;1.80;;;;;;;22.94;51.22;100853.94;4900881;28;99704;-73
2023/07/20 07:00:33;;;;;;;3.63;1.58;;;;;;;22.82;51.25;100851.44;4906966;28;99519;-73
2023/07/20 07:02:59;;;;;;;4.03;1.50;;;;;;;23.31;49.89;100848.91;4910468;28;97165;-74
2023/07/20 07:05:26;;;;;;;5.60;1.63;;;;;;;24.33;48.36;100845.22;4905675;28;96930;-74
2023/07/20 07:07:53;;;;;;;3.42;1.60;;;;;;;25.13;45.23;100836.81;4905608;28;99283;-73
2023/07/20 07:10:19;;;;;;;3.17;1.38;;;;;;;25.44;44.46;100834.72;4905554;28;98953;-73
2023/07/20 07:12:45;;;;;;;2.92;1.10;;;;;;;25.06;44.31;100842.94;4907827;28;96820;-73
2023/07/20 07:15:13;;;;;;;2.83;1.17;;;;;;;24.95;44.91;100836.69;4903294;28;96857;-72
2023/07/20 07:17:40;;;;;;;1.88;1.10;;;;;;;24.44;45.88;100838.81;4905738;28;99507;-73
2023/07/20 07:20:08;;;;;;;1.88;1.10;;;;;;;23.62;47.18;100844.44;4901692;28;99252;-74
2023/07/20 07:22:34;;;;;;;2.08;0.90;;;;;;;23.68;47.09;100845.72;4910119;28;96904;-74
2023/07/20 07:25:03;;;;;;;3.25;1.00;;;;;;;23.86;46.98;100852.19;4910026;28;97018;-73
2023/07/20 07:27:30;;;;;;;3.38;0.90;;;;;;;24.05;46.34;100854.94;4907170;28;99023;-74
2023/07/20 07:29:56;;;;;;;2.53;1.20;;;;;;;24.38;45.28;100847.47;4908030;28;98744;-75
2023/07/20 07:32:25;;;;;;;1.42;1.00;;;;;;;24.84;44.22;100846.78;4908926;28;96860;-73
2023/07/20 07:34:51;;;;;;;3.65;0.88;;;;;;;25.13;43.01;100846.78;4908340;28;97330;-73
2023/07/20 07:37:19;;;;;;;2.67;1.10;;;;;;;25.51;42.14;100857.50;4908634;28;99016;-73
2023/07/20 07:39:46;;;;;;;1.20;0.90;;;;;;;25.74;41.26;100850.72;4907836;28;98065;-74
2023/07/20 07:42:13;;;;;;;2.05;0.82;;;;;;;25.52;42.12;100853.78;4908066;28;96846;-73
2023/07/20 07:44:40;;;;;;;5.40;1.48;;;;;;;25.71;42.12;100837.50;4906679;28;96952;-74
2023/07/20 07:47:06;;;;;;;2.20;0.90;;;;;;;25.95;41.73;100833.38;4907596;28;97648;-74
2023/07/20 07:49:34;;;;;;;7.50;1.30;;;;;;;26.13;40.81;100842.38;4905010;28;99746;-73
2023/07/20 07:52:02;;;;;;;1.15;0.52;;;;;;;25.71;40.43;100853.75;4906882;28;97137;-73
2023/07/20 07:54:28;;;;;;;3.05;0.70;;;;;;;26.27;39.76;100849.19;4906300;28;96746;-72
2023/07/20 07:56:55;;;;;;;3.78;0.90;;;;;;;26.24;38.94;100855.78;4905493;28;98378;-73
2023/07/20 07:59:21;;;;;;;0.50;0.43;;;;;;;25.69;38.80;100853.03;4906365;28;101764;-75
2023/07/20 08:01:47;;;;;;;2.33;0.82;;;;;;;26.06;38.78;100862.94;4899388;28;99665;-74
2023/07/20 08:04:14;;;;;;;2.85;1.50;;;;;;;26.35;37.74;100854.69;4906454;28;97043;-73
2023/07/20 08:06:42;;;;;;;3.38;0.98;;;;;;;25.95;38.52;100855.03;4907707;28;99119;-73
2023/07/20 08:09:08;;;;;;;8.10;0.68;;;;;;;25.87;38.17;100853.09;4906197;28;98178;-73
2023/07/20 08:11:34;;;;;;;3.58;0.50;;;;;;;25.93;38.86;100863.31;4907092;28;97039;-73
2023/07/20 08:14:01;;;;;;;0.50;0.50;;;;;;;25.98;38.37;100852.91;4906874;28;97047;-74
2023/07/20 08:16:27;;;;;;;1.35;0.55;;;;;;;26.09;38.54;100860.81;4909659;28;98959;-74
2023/07/20 08:18:54;;;;;;;5.53;0.93;;;;;;;26.62;37.89;100868.19;4908667;28;99173;-73
2023/07/20 08:21:20;;;;;;;1.83;0.73;;;;;;;26.22;38.39;100874.00;4909682;28;97123;-75
2023/07/20 08:23:48;;;;;;;0.93;0.40;;;;;;;25.70;38.48;100875.53;4909570;28;96843;-74
2023/07/20 08:26:18;;;;;;;1.25;1.02;;;;;;;25.59;39.14;100879.28;4911262;28;99708;-74
2023/07/20 08:28:48;;;;;;;3.95;0.60;;;;;;;25.85;38.42;100875.91;4905795;28;101125;-73
2023/07/20 08:31:14;;;;;;;0.60;0.60;;;;;;;26.21;38.39;100885.81;4905175;28;97081;-75
2023/07/20 08:33:40;;;;;;;5.57;0.57;;;;;;;25.39;39.82;100874.91;4909555;28;97432;-74
2023/07/20 08:36:07;;;;;;;1.27;0.55;;;;;;;25.34;40.04;100875.31;4909430;28;99268;-73
2023/07/20 08:38:34;;;;;;;3.13;0.82;;;;;;;25.79;39.22;100877.38;4909173;28;101357;-73
2023/07/20 08:41:01;;;;;;;1.60;0.50;;;;;;;25.67;39.53;100870.41;4906512;28;97178;-73
2023/07/20 08:43:28;;;;;;;0.77;0.50;;;;;;;25.98;38.54;100876.41;4908887;28;96833;-75
2023/07/20 08:45:56;;;;;;;2.65;0.60;;;;;;;26.22;37.88;100867.72;4909595;28;98869;-73
2023/07/20 08:48:22;;;;;;;1.20;0.35;;;;;;;26.07;38.34;100872.78;4906765;28;98864;-74
2023/07/20 08:50:51;;;;;;;0.82;0.40;;;;;;;25.46;39.17;100878.72;4908528;28;97232;-73
2023/07/20 08:53:18;;;;;;;2.92;0.68;;;;;;;25.19;39.73;100882.22;4910792;28;96828;-74
2023/07/20 08:55:46;;;;;;;4.47;0.60;;;;;;;25.42;39.10;100875.44;4908633;28;99163;-73
2023/07/20 08:58:16;;;;;;;0.47;0.30;;;;;;;25.90;37.48;100873.59;4909813;28;97747;-74
2023/07/20 09:00:42;;;;;;;1.77;1.30;;;;;;;25.85;37.78;100865.94;4908357;28;97132;-73
2023/07/20 09:03:09;;;;;;;2.22;0.60;;;;;;;26.29;36.36;100867.00;4910844;28;97412;-74
2023/07/20 09:05:36;;;;;;;6.97;0.80;;;;;;;26.61;35.71;100869.19;4907192;28;97826;-74
2023/07/20 09:08:03;;;;;;;4.38;1.45;;;;;;;26.77;35.57;100871.22;4909743;28;98960;-65
2023/07/20 09:10:30;;;;;;;2.47;0.40;;;;;;;26.39;36.33;100873.19;4906118;28;97912;-65
2023/07/20 09:12:56;;;;;;;2.72;0.55;;;;;;;26.20;36.53;100870.56;4910016;28;97062;-65
2023/07/20 09:15:24;;;;;;;1.73;0.43;;;;;;;27.04;35.78;100870.28;4908218;28;99429;-65
2023/07/20 09:17:53;;;;;;;3.80;0.52;;;;;;;27.34;35.29;100865.25;4909137;28;98900;-66
2023/07/20 09:20:20;;;;;;;3.83;0.30;;;;;;;26.96;35.30;100866.50;4906392;28;96956;-66
2023/07/20 09:22:47;;;;;;;1.85;0.30;;;;;;;27.11;35.29;100863.22;4908253;28;97000;-64
2023/07/20 09:25:15;;;;;;;4.28;0.70;;;;;;;27.13;34.96;100864.75;4899750;28;101200;-65
2023/07/20 09:27:43;;;;;;;0.30;0.30;;;;;;;26.85;34.51;100853.13;4910815;28;99218;-64
2023/07/20 09:30:13;;;;;;;3.47;0.65;;;;;;;27.17;34.77;100862.59;4908133;28;97846;-64
2023/07/20 09:32:43;;;;;;;1.95;0.38;;;;;;;27.24;34.80;100864.47;4907873;28;97467;-63
2023/07/20 09:35:15;;;;;;;0.95;0.50;;;;;;;27.49;35.08;100875.50;4905193;28;98995;-64
2023/07/20 09:37:47;;;;;;;2.05;0.60;;;;;;;26.97;35.33;100867.34;4908327;28;98832;-64
2023/07/20 09:40:16;;;;;;;1.70;0.43;;;;;;;26.77;35.52;100874.78;4909498;28;96941;-64
2023/07/20 09:42:43;;;;;;;3.08;0.60;;;;;;;26.62;36.15;100878.16;4908435;28;97695;-65
2023/07/20 09:45:11;;;;;;;4.43;0.65;;;;;;;26.34;35.81;100870.09;4907081;28;99253;-66
2023/07/20 09:47:38;;;;;;;7.15;0.65;;;;;;;25.73;36.71;100884.19;4907456;28;98359;-64
2023/07/20 09:50:10;;;;;;;5.95;0.70;;;;;;;25.25;37.96;100888.88;4908961;28;96847;-64
2023/07/20 09:52:39;;;;;;;1.05;0.40;;;;;;;24.97;38.71;100891.47;4908874;28;98030;-65
2023/07/20 09:55:07;;;;;;;1.52;0.57;;;;;;;24.61;40.28;100892.16;4907598;28;99239;-64
2023/07/20 09:57:34;;;;;;;3.85;0.47;;;;;;;24.23;42.48;100891.09;4908003;28;100392;-64
2023/07/20 10:00:01;;;;;;;4.70;0.80;;;;;;;24.56;42.71;100897.13;4908410;28;97121;-64
2023/07/20 10:02:33;;;;;;;1.10;0.38;;;;;;;24.37;43.46;100900.63;4909504;28;96797;-65
2023/07/20 10:05:04;;;;;;;2.92;0.60;;;;;;;24.67;43.27;100905.09;4907396;28;99479;-65
2023/07/20 10:07:32;;;;;;;0.60;0.60;;;;;;;25.00;42.16;100907.41;4907877;28;99184;-64
2023/07/20 10:10:02;;;;;;;3.55;0.70;;;;;;;24.86;42.72;100915.06;4909430;28;97157;-65
2023/07/20 10:12:31;;;;;;;3.60;0.70;;;;;;;24.68;42.58;100898.69;4906539;28;97771;-65
2023/07/20 10:15:04;;;;;;;3.35;1.00;;;;;;;24.78;42.14;100904.97;4907326;28;99399;-64
2023/07/20 10:17:31;;;;;;;5.90;0.60;;;;;;;24.71;42.54;100895.72;4905051;28;101961;-64
2023/07/20 10:20:00;;;;;;;2.70;0.57;;;;;;;24.53;42.60;100900.13;4907539;28;97361;-65
2023/07/20 10:22:27;;;;;;;1.70;0.57;;;;;;;24.74;42.04;100900.84;4907854;28;98182;-65
2023/07/20 10:24:58;;;;;;;2.10;0.80;;;;;;;24.88;41.82;100903.09;4901043;28;99041;-64
2023/07/20 10:27:25;;;;;;;3.67;0.88;;;;;;;24.60;41.73;100899.41;4907466;28;98757;-65
2023/07/20 10:29:52;;;;;;;0.93;0.60;;;;;;;24.50;41.31;100898.53;4904721;28;98381;-64
2023/07/20 10:32:20;;;;;;;2.47;0.80;;;;;;;24.76;40.85;100903.38;4906494;28;96814;-65
2023/07/20 10:34:51;;;;;;;7.90;1.02;;;;;;;25.11;40.24;100901.00;4900889;28;101453;-65
2023/07/20 10:37:46;;;;;;;3.53;0.70;;;;;;;25.31;40.24;100899.13;4907339;28;99395;-65
2023/07/20 10:40:30;;;;;;;2.22;0.95;;;;;;;25.23;40.15;100901.69;4904266;28;96812;-65
2023/07/20 10:43:04;;;;;;;2.10;0.73;;;;;;;25.31;39.88;100893.72;4905558;28;97501;-65
2023/07/20 10:45:49;;;;;;;2.55;0.70;;;;;;;25.11;39.79;100897.44;4904338;28;98956;-66
2023/07/20 10:48:16;;;;;;;7.55;1.35;;;;;;;25.21;40.17;100899.13;4905232;28;98741;-66
2023/07/20 10:50:44;;;;;;;1.33;0.60;;;;;;;24.97;40.50;100893.31;4906007;28;99456;-66
2023/07/20 10:53:17;;;;;;;9.80;2.50;;;;;;;25.42;39.79;100907.91;4907611;28;97778;-66
2023/07/20 10:55:46;;;;;;;1.92;0.82;;;;;;;25.81;38.90;100899.69;4908381;28;102236;-65
2023/07/20 10:58:14;;;;;;;5.10;0.85;;;;;;;25.74;39.18;100899.44;4908964;28;99064;-66
2023/07/20 11:00:59;;;;;;;2.47;0.50;;;;;;;25.60;38.37;100899.91;4907438;28;98229;-66
2023/07/20 11:03:32;;;;;;;0.60;0.40;;;;;;;25.74;38.39;100893.16;4906042;28;97891;-65
2023/07/20 11:05:59;;;;;;;2.22;0.60;;;;;;;26.22;38.27;100903.78;4908348;28;101104;-66
2023/07/20 11:08:42;;;;;;;2.10;0.60;;;;;;;26.53;37.65;100902.47;4905298;28;98934;-66
2023/07/20 11:11:26;;;;;;;2.28;0.73;;;;;;;26.02;37.71;100902.19;4905491;28;97139;-65
2023/07/20 11:13:57;;;;;;;2.58;0.60;;;;;;;26.11;38.32;100901.28;4906157;28;97223;-64
2023/07/20 11:16:38;;;;;;;0.90;0.70;;;;;;;25.99;38.93;100902.50;4903792;28;98050;-65
2023/07/20 11:19:06;;;;;;;1.63;0.70;;;;;;;26.09;38.87;100901.44;4906192;28;98770;-66
2023/07/20 11:21:38;;;;;;;2.85;0.60;;;;;;;25.72;38.77;100904.16;4902220;28;97423;-66
2023/07/20 11:24:06;;;;;;;2.13;0.80;;;;;;;26.23;38.13;100902.78;4907217;28;96900;-66
2023/07/20 11:26:42;;;;;;;2.95;0.70;;;;;;;25.94;38.69;100900.22;4907600;28;99210;-65
2023/07/20 11:29:09;;;;;;;3.20;0.70;;;;;;;25.59;40.09;100902.78;4907680;28;99530;-64